Harbor Emperor — WCY6430 — position and weather

sailwx.info

Track history (hours):
 
Tides and Currents Weather Stations Pressure Air Temp Water Temp Dewpoint Dewpoint Depression Visibility Wind Speed Wind Dir Waves Ship Positions

Harbor Emperor

Owner: BLUE & GOLD FLEET, SAN FRANCISCO, CA. More information available from US FCC via Universal Licensing System and Coast Guard Vessel Documentation Center.

Last reported at 2017-Sep-24 02:59 UTC. Time now 2017-Sep-24 03:30 UTC.
Position N 37°49' W 122°25'.

Length 31 m.

Type: Passenger vessel. MMSI: 366985270.

Date/timePositionNaut miles runAvg speedWind from/ knotsBaromVisibWave heightAir tempDewpointWater temp
2017-Sep-24 02:59N 37°49' W 122°25'0 0.0
2017-Sep-24 02:26N 37°49' W 122°25'0 0.0
2017-Sep-24 01:59N 37°49' W 122°25'0 0.0
2017-Sep-24 01:28N 37°49' W 122°25'2 4.2
2017-Sep-24 01:00N 37°50' W 122°27'2 3.9
2017-Sep-24 00:30N 37°49' W 122°25'1 1.1
2017-Sep-24 00:00N 37°49' W 122°24'1 2.5
2017-Sep-23 23:30N 37°49' W 122°25'2 3.8
2017-Sep-23 23:00N 37°49' W 122°28'2 4.8
2017-Sep-23 22:30N 37°49' W 122°25'0 0.8
2017-Sep-23 22:01N 37°49' W 122°24'2 4.6
2017-Sep-23 21:30N 37°49' W 122°27'2 4.3
2017-Sep-23 21:00N 37°49' W 122°25'0 0.0
2017-Sep-23 20:30N 37°49' W 122°25'0 0.8
2017-Sep-23 20:00N 37°49' W 122°24'0 0.0
2017-Sep-22 01:27N 37°49' W 122°25'2 5.4
2017-Sep-22 01:00N 37°49' W 122°28'2 4.8
2017-Sep-22 00:30N 37°49' W 122°25'1 2.9
2017-Sep-22 00:01N 37°48' W 122°23'2 4.7
2017-Sep-21 23:30N 37°49' W 122°25'2 3.3
2017-Sep-21 23:00N 37°49' W 122°27'2 3.8
2017-Sep-21 22:30N 37°49' W 122°25'1 2.0
2017-Sep-21 22:00N 37°49' W 122°25'2 3.3
2017-Sep-21 21:30N 37°49' W 122°27'2 3.8
2017-Sep-21 21:00N 37°49' W 122°25'0 0.0
2017-Sep-21 20:30N 37°49' W 122°25'1 2.2
2017-Sep-21 20:00N 37°50' W 122°25'2 3.1
2017-Sep-21 19:30N 37°49' W 122°27'2 3.2
2017-Sep-21 19:00N 37°49' W 122°25'1 1.9
2017-Sep-21 18:30N 37°49' W 122°25'1 2.9
2017-Sep-21 18:00N 37°49' W 122°27'2 3.3
2017-Sep-21 17:30N 37°49' W 122°25'0 0.0
2017-Sep-21 01:27N 37°49' W 122°25'2 5.3
2017-Sep-21 01:00N 37°49' W 122°27'2 4.5
2017-Sep-21 00:29N 37°49' W 122°25'1 2.8
2017-Sep-21 00:00N 37°48' W 122°23'2 4.6
2017-Sep-20 23:31N 37°49' W 122°25'2 3.9
2017-Sep-20 23:01N 37°49' W 122°27'2 4.2
2017-Sep-20 22:29N 37°49' W 122°25'1 2.1
2017-Sep-20 22:00N 37°49' W 122°25'2 3.7
2017-Sep-20 21:30N 37°49' W 122°27'2 2.2
2017-Sep-20 20:33N 37°49' W 122°25'0 0.0
2017-Sep-20 20:27N 37°49' W 122°25'1 1.8
2017-Sep-20 20:00N 37°49' W 122°25'2 3.6
2017-Sep-20 19:31N 37°49' W 122°27'2 3.8
2017-Sep-20 19:00N 37°49' W 122°25'1 2.2
2017-Sep-20 18:30N 37°50' W 122°25'1 3.0
2017-Sep-20 18:00N 37°49' W 122°27'2 3.0
2017-Sep-20 17:30N 37°49' W 122°25'0 0.0
2017-Sep-20 01:28N 37°49' W 122°25'2 4.9
2017-Sep-20 01:00N 37°49' W 122°27'2 4.5
2017-Sep-20 00:30N 37°49' W 122°25'1 1.9
2017-Sep-20 00:00N 37°48' W 122°24'2 4.4
2017-Sep-19 23:30N 37°50' W 122°26'2 3.5
2017-Sep-19 23:00N 37°49' W 122°28'2 4.8
2017-Sep-19 22:30N 37°49' W 122°25'1 2.0
2017-Sep-19 22:01N 37°49' W 122°25'2 3.5
2017-Sep-19 21:30N 37°49' W 122°27'2 3.9
2017-Sep-19 21:00N 37°49' W 122°25'0 0.0
2017-Sep-19 20:30N 37°49' W 122°25'1 1.7
2017-Sep-19 20:00N 37°49' W 122°25'2 3.5
2017-Sep-19 19:30N 37°49' W 122°27'2 3.8
2017-Sep-19 19:00N 37°49' W 122°25'1 2.1
2017-Sep-19 18:30N 37°50' W 122°25'2 3.4
2017-Sep-19 18:01N 37°49' W 122°27'2 3.6
2017-Sep-19 17:30N 37°49' W 122°25'0 0.0
2017-Sep-19 01:30N 37°49' W 122°25'2 5.1
2017-Sep-19 01:01N 37°49' W 122°28'2 4.9
2017-Sep-19 00:30N 37°49' W 122°25'1 2.3
2017-Sep-19 00:00N 37°48' W 122°23'2 4.6
2017-Sep-18 23:30N 37°50' W 122°26'2 3.4
2017-Sep-18 23:00N 37°49' W 122°27'2 4.4
2017-Sep-18 22:30N 37°49' W 122°25'1 2.4
2017-Sep-18 22:00N 37°50' W 122°25'2 3.3
2017-Sep-18 21:30N 37°49' W 122°27'2 3.8
2017-Sep-18 21:00N 37°49' W 122°25'0 0.0
2017-Sep-18 20:30N 37°49' W 122°25'1 1.8
2017-Sep-18 20:00N 37°49' W 122°25'2 3.7
2017-Sep-18 19:30N 37°49' W 122°27'2 4.1
2017-Sep-18 19:00N 37°49' W 122°25'1 1.6
2017-Sep-18 18:30N 37°49' W 122°25'2 3.2
2017-Sep-18 18:00N 37°49' W 122°27'2 3.4
2017-Sep-18 17:30N 37°49' W 122°25'0 0.0
2017-Sep-18 16:56N 37°49' W 122°25'0 0.0
2017-Sep-18 16:29N 37°49' W 122°25'0 0.0
2017-Sep-18 15:59N 37°49' W 122°25'0 0.0
2017-Sep-18 15:26N 37°49' W 122°25'0 0.0
2017-Sep-18 14:56N 37°49' W 122°25'0 0.0
2017-Sep-18 14:26N 37°49' W 122°25'0 0.0
2017-Sep-18 13:50N 37°49' W 122°25'0 0.0
2017-Sep-18 13:26N 37°49' W 122°25'0 0.0
2017-Sep-18 12:59N 37°49' W 122°25'0 0.0
2017-Sep-18 12:29N 37°49' W 122°25'0 0.0
2017-Sep-18 11:56N 37°49' W 122°25'0 0.0
2017-Sep-18 11:29N 37°49' W 122°25'0 0.0
2017-Sep-18 10:56N 37°49' W 122°25'0 0.0
2017-Sep-18 10:26N 37°49' W 122°25'0 0.0
2017-Sep-18 09:56N 37°49' W 122°25'0 0.0
2017-Sep-18 09:26N 37°49' W 122°25'0 0.0
2017-Sep-18 08:59N 37°49' W 122°25'0 0.0
2017-Sep-18 08:29N 37°49' W 122°25'0 0.0
2017-Sep-18 07:59N 37°49' W 122°25'0 0.0
2017-Sep-18 07:26N 37°49' W 122°25'0 0.0
2017-Sep-18 06:59N 37°49' W 122°25'0 0.0
2017-Sep-18 06:29N 37°49' W 122°25'0 0.0
2017-Sep-18 05:53N 37°49' W 122°25'0 0.0
2017-Sep-18 05:29N 37°49' W 122°25'0 0.0
2017-Sep-18 04:59N 37°49' W 122°25'0 0.0
2017-Sep-18 04:29N 37°49' W 122°25'0 0.0
2017-Sep-18 03:59N 37°49' W 122°25'0 0.0
2017-Sep-18 03:29N 37°49' W 122°25'0 0.0
2017-Sep-18 02:59N 37°49' W 122°25'0 0.0
2017-Sep-18 02:29N 37°49' W 122°25'0 0.0
2017-Sep-18 01:56N 37°49' W 122°25'0 0.0
2017-Sep-18 01:29N 37°49' W 122°25'2 4.2
2017-Sep-18 01:01N 37°49' W 122°27'2 4.0
2017-Sep-18 00:30N 37°49' W 122°25'1 1.1
2017-Sep-18 00:00N 37°49' W 122°24'1 2.8
2017-Sep-17 23:31N 37°49' W 122°25'2 3.6
2017-Sep-17 23:00N 37°49' W 122°28'2 4.6
2017-Sep-17 22:30N 37°49' W 122°25'0 0.9
2017-Sep-17 22:00N 37°49' W 122°24'3 5.2
2017-Sep-17 21:30N 37°49' W 122°28'2 4.9
2017-Sep-17 21:00N 37°49' W 122°25'0 0.0
2017-Sep-17 20:30N 37°49' W 122°25'1 1.0
2017-Sep-17 20:00N 37°49' W 122°24'2 4.9
2017-Sep-17 19:30N 37°49' W 122°28'2 4.7
2017-Sep-17 19:00N 37°49' W 122°25'0 0.9
2017-Sep-17 18:30N 37°49' W 122°24'2 4.6
2017-Sep-17 18:01N 37°49' W 122°27'2 0.1
2017-Sep-17 03:20N 37°49' W 122°25'1 3.0
2017-Sep-17 03:01N 37°48' W 122°24'1 2.0
2017-Sep-17 02:31N 37°49' W 122°24'2 3.5
2017-Sep-17 02:00N 37°49' W 122°27'2 3.1
2017-Sep-17 01:30N 37°49' W 122°25'0 0.0
2017-Sep-17 01:00N 37°49' W 122°25'0 0.0
2017-Sep-17 00:30N 37°49' W 122°25'1 1.2
2017-Sep-17 00:00N 37°49' W 122°24'2 3.1
2017-Sep-16 23:31N 37°49' W 122°25'2 3.6
2017-Sep-16 23:00N 37°49' W 122°28'2 4.7
2017-Sep-16 22:29N 37°49' W 122°25'0 1.0
2017-Sep-16 22:01N 37°49' W 122°24'2 4.5
2017-Sep-16 21:30N 37°49' W 122°27'2 4.3
2017-Sep-16 21:00N 37°49' W 122°25'0 0.0
2017-Sep-16 20:31N 37°49' W 122°25'0 0.5
2017-Sep-16 20:00N 37°49' W 122°24'3 5.7
2017-Sep-16 19:31N 37°49' W 122°28'3 5.4
2017-Sep-16 19:00N 37°49' W 122°25'0 0.5
2017-Sep-16 18:31N 37°49' W 122°24'3 5.1
2017-Sep-16 18:01N 37°49' W 122°28'2 4.7
2017-Sep-16 17:30N 37°49' W 122°25'0 0.0
2017-Sep-16 16:54N 37°49' W 122°25'0 0.0
2017-Sep-16 16:30N 37°49' W 122°25'0 0.0
2017-Sep-16 16:00N 37°49' W 122°25'0 0.0
2017-Sep-16 15:30N 37°49' W 122°25'0 0.0
2017-Sep-16 15:00N 37°49' W 122°25'0 0.0
2017-Sep-16 14:30N 37°49' W 122°25'0 0.0
2017-Sep-16 14:00N 37°49' W 122°25'0 0.0
2017-Sep-16 13:30N 37°49' W 122°25'0 0.0
2017-Sep-16 13:00N 37°49' W 122°25'0 0.0
2017-Sep-16 12:30N 37°49' W 122°25'0 0.0
2017-Sep-16 12:00N 37°49' W 122°25'0 0.0
2017-Sep-16 11:30N 37°49' W 122°25'0 0.0
2017-Sep-16 11:00N 37°49' W 122°25'0 0.0
2017-Sep-16 10:30N 37°49' W 122°25'0 0.0
2017-Sep-16 10:00N 37°49' W 122°25'0 0.0
2017-Sep-16 09:30N 37°49' W 122°25'0 0.0
2017-Sep-16 09:00N 37°49' W 122°25'0 0.0
2017-Sep-16 08:30N 37°49' W 122°25'0 0.0
2017-Sep-16 08:00N 37°49' W 122°25'0 0.0
2017-Sep-16 07:30N 37°49' W 122°25'0 0.0
2017-Sep-16 07:00N 37°49' W 122°25'0 0.0
2017-Sep-16 06:30N 37°49' W 122°25'0 0.0
2017-Sep-16 06:00N 37°49' W 122°25'0 0.0
2017-Sep-16 05:24N 37°49' W 122°25'0 0.0
2017-Sep-16 04:57N 37°49' W 122°25'0 0.0
2017-Sep-16 04:30N 37°49' W 122°25'0 0.0
2017-Sep-16 03:48N 37°49' W 122°25'0 0.0
2017-Sep-16 03:30N 37°49' W 122°25'0 0.0
2017-Sep-16 03:00N 37°49' W 122°25'0 0.0
2017-Sep-16 02:21N 37°49' W 122°25'0 0.0
2017-Sep-16 02:00N 37°49' W 122°25'0 0.0
2017-Sep-16 01:28N 37°49' W 122°25'2 5.5
2017-Sep-16 01:01N 37°49' W 122°28'2 5.0
2017-Sep-16 00:30N 37°49' W 122°25'0 0.8
2017-Sep-16 00:00N 37°49' W 122°24'1 2.3
2017-Sep-15 23:30N 37°49' W 122°25'1 2.1
2017-Sep-15 23:00N 37°49' W 122°27'2 3.2
2017-Sep-15 22:30N 37°49' W 122°25'1 1.9
2017-Sep-15 22:00N 37°49' W 122°25'1 2.8
2017-Sep-15 21:30N 37°49' W 122°27'2 3.2
2017-Sep-15 21:00N 37°49' W 122°25'0 0.0
2017-Sep-15 20:30N 37°49' W 122°25'1 2.2
2017-Sep-15 20:00N 37°50' W 122°25'2 3.3
2017-Sep-15 19:30N 37°49' W 122°27'2 3.6
2017-Sep-15 19:00N 37°49' W 122°25'1 1.4
2017-Sep-15 18:31N 37°49' W 122°25'2 4.6
2017-Sep-15 18:01N 37°49' W 122°27'2 0.1
2017-Sep-15 01:29N 37°49' W 122°25'3 6.0
2017-Sep-15 01:01N 37°49' W 122°28'3 5.6
2017-Sep-15 00:31N 37°49' W 122°25'1 1.8
2017-Sep-15 00:01N 37°48' W 122°24'2 3.1
2017-Sep-14 23:31N 37°49' W 122°25'2 3.1
2017-Sep-14 23:00N 37°49' W 122°27'2 3.5
2017-Sep-14 22:30N 37°49' W 122°25'1 1.9
2017-Sep-14 22:00N 37°49' W 122°25'2 3.5
2017-Sep-14 21:30N 37°49' W 122°27'2 3.8
2017-Sep-14 21:01N 37°49' W 122°25'0 0.0
2017-Sep-14 20:30N 37°49' W 122°25'1 2.0
2017-Sep-14 20:01N 37°49' W 122°25'2 3.3
2017-Sep-14 19:31N 37°49' W 122°27'2 3.9
2017-Sep-14 19:00N 37°49' W 122°25'1 1.8
2017-Sep-14 18:30N 37°49' W 122°25'2 3.6
2017-Sep-14 18:00N 37°49' W 122°27'2 4.1
2017-Sep-14 17:31N 37°49' W 122°25'  
Track history (hours):
 
Tides and Currents Weather Stations Pressure Air Temp Water Temp Dewpoint Dewpoint Depression Visibility Wind Speed Wind Dir Waves Ship Positions

Harbor Emperor

Owner: BLUE & GOLD FLEET, SAN FRANCISCO, CA. More information available from US FCC via Universal Licensing System and Coast Guard Vessel Documentation Center.

Last reported at 2017-Sep-24 02:59 UTC. Time now 2017-Sep-24 03:30 UTC.
Position N 37°49' W 122°25'.

Length 31 m.

Type: Passenger vessel. MMSI: 366985270.

Date/timePositionNaut miles runAvg speedWind from/ knotsBaromVisibWave heightAir tempDewpointWater temp
2017-Sep-24 02:59N 37°49' W 122°25'0 0.0
2017-Sep-24 02:26N 37°49' W 122°25'0 0.0
2017-Sep-24 01:59N 37°49' W 122°25'0 0.0
2017-Sep-24 01:28N 37°49' W 122°25'2 4.2
2017-Sep-24 01:00N 37°50' W 122°27'2 3.9
2017-Sep-24 00:30N 37°49' W 122°25'1 1.1
2017-Sep-24 00:00N 37°49' W 122°24'1 2.5
2017-Sep-23 23:30N 37°49' W 122°25'2 3.8
2017-Sep-23 23:00N 37°49' W 122°28'2 4.8
2017-Sep-23 22:30N 37°49' W 122°25'0 0.8
2017-Sep-23 22:01N 37°49' W 122°24'2 4.6
2017-Sep-23 21:30N 37°49' W 122°27'2 4.3
2017-Sep-23 21:00N 37°49' W 122°25'0 0.0
2017-Sep-23 20:30N 37°49' W 122°25'0 0.8
2017-Sep-23 20:00N 37°49' W 122°24'0 0.0
2017-Sep-22 01:27N 37°49' W 122°25'2 5.4
2017-Sep-22 01:00N 37°49' W 122°28'2 4.8
2017-Sep-22 00:30N 37°49' W 122°25'1 2.9
2017-Sep-22 00:01N 37°48' W 122°23'2 4.7
2017-Sep-21 23:30N 37°49' W 122°25'2 3.3
2017-Sep-21 23:00N 37°49' W 122°27'2 3.8
2017-Sep-21 22:30N 37°49' W 122°25'1 2.0
2017-Sep-21 22:00N 37°49' W 122°25'2 3.3
2017-Sep-21 21:30N 37°49' W 122°27'2 3.8
2017-Sep-21 21:00N 37°49' W 122°25'0 0.0
2017-Sep-21 20:30N 37°49' W 122°25'1 2.2
2017-Sep-21 20:00N 37°50' W 122°25'2 3.1
2017-Sep-21 19:30N 37°49' W 122°27'2 3.2
2017-Sep-21 19:00N 37°49' W 122°25'1 1.9
2017-Sep-21 18:30N 37°49' W 122°25'1 2.9
2017-Sep-21 18:00N 37°49' W 122°27'2 3.3
2017-Sep-21 17:30N 37°49' W 122°25'0 0.0
2017-Sep-21 01:27N 37°49' W 122°25'2 5.3
2017-Sep-21 01:00N 37°49' W 122°27'2 4.5
2017-Sep-21 00:29N 37°49' W 122°25'1 2.8
2017-Sep-21 00:00N 37°48' W 122°23'2 4.6
2017-Sep-20 23:31N 37°49' W 122°25'2 3.9
2017-Sep-20 23:01N 37°49' W 122°27'2 4.2
2017-Sep-20 22:29N 37°49' W 122°25'1 2.1
2017-Sep-20 22:00N 37°49' W 122°25'2 3.7
2017-Sep-20 21:30N 37°49' W 122°27'2 2.2
2017-Sep-20 20:33N 37°49' W 122°25'0 0.0
2017-Sep-20 20:27N 37°49' W 122°25'1 1.8
2017-Sep-20 20:00N 37°49' W 122°25'2 3.6
2017-Sep-20 19:31N 37°49' W 122°27'2 3.8
2017-Sep-20 19:00N 37°49' W 122°25'1 2.2
2017-Sep-20 18:30N 37°50' W 122°25'1 3.0
2017-Sep-20 18:00N 37°49' W 122°27'2 3.0
2017-Sep-20 17:30N 37°49' W 122°25'0 0.0
2017-Sep-20 01:28N 37°49' W 122°25'2 4.9
2017-Sep-20 01:00N 37°49' W 122°27'2 4.5
2017-Sep-20 00:30N 37°49' W 122°25'1 1.9
2017-Sep-20 00:00N 37°48' W 122°24'2 4.4
2017-Sep-19 23:30N 37°50' W 122°26'2 3.5
2017-Sep-19 23:00N 37°49' W 122°28'2 4.8
2017-Sep-19 22:30N 37°49' W 122°25'1 2.0
2017-Sep-19 22:01N 37°49' W 122°25'2 3.5
2017-Sep-19 21:30N 37°49' W 122°27'2 3.9
2017-Sep-19 21:00N 37°49' W 122°25'0 0.0
2017-Sep-19 20:30N 37°49' W 122°25'1 1.7
2017-Sep-19 20:00N 37°49' W 122°25'2 3.5
2017-Sep-19 19:30N 37°49' W 122°27'2 3.8
2017-Sep-19 19:00N 37°49' W 122°25'1 2.1
2017-Sep-19 18:30N 37°50' W 122°25'2 3.4
2017-Sep-19 18:01N 37°49' W 122°27'2 3.6
2017-Sep-19 17:30N 37°49' W 122°25'0 0.0
2017-Sep-19 01:30N 37°49' W 122°25'2 5.1
2017-Sep-19 01:01N 37°49' W 122°28'2 4.9
2017-Sep-19 00:30N 37°49' W 122°25'1 2.3
2017-Sep-19 00:00N 37°48' W 122°23'2 4.6
2017-Sep-18 23:30N 37°50' W 122°26'2 3.4
2017-Sep-18 23:00N 37°49' W 122°27'2 4.4
2017-Sep-18 22:30N 37°49' W 122°25'1 2.4
2017-Sep-18 22:00N 37°50' W 122°25'2 3.3
2017-Sep-18 21:30N 37°49' W 122°27'2 3.8
2017-Sep-18 21:00N 37°49' W 122°25'0 0.0
2017-Sep-18 20:30N 37°49' W 122°25'1 1.8
2017-Sep-18 20:00N 37°49' W 122°25'2 3.7
2017-Sep-18 19:30N 37°49' W 122°27'2 4.1
2017-Sep-18 19:00N 37°49' W 122°25'1 1.6
2017-Sep-18 18:30N 37°49' W 122°25'2 3.2
2017-Sep-18 18:00N 37°49' W 122°27'2 3.4
2017-Sep-18 17:30N 37°49' W 122°25'0 0.0
2017-Sep-18 16:56N 37°49' W 122°25'0 0.0
2017-Sep-18 16:29N 37°49' W 122°25'0 0.0
2017-Sep-18 15:59N 37°49' W 122°25'0 0.0
2017-Sep-18 15:26N 37°49' W 122°25'0 0.0
2017-Sep-18 14:56N 37°49' W 122°25'0 0.0
2017-Sep-18 14:26N 37°49' W 122°25'0 0.0
2017-Sep-18 13:50N 37°49' W 122°25'0 0.0
2017-Sep-18 13:26N 37°49' W 122°25'0 0.0
2017-Sep-18 12:59N 37°49' W 122°25'0 0.0
2017-Sep-18 12:29N 37°49' W 122°25'0 0.0
2017-Sep-18 11:56N 37°49' W 122°25'0 0.0
2017-Sep-18 11:29N 37°49' W 122°25'0 0.0
2017-Sep-18 10:56N 37°49' W 122°25'0 0.0
2017-Sep-18 10:26N 37°49' W 122°25'0 0.0
2017-Sep-18 09:56N 37°49' W 122°25'0 0.0
2017-Sep-18 09:26N 37°49' W 122°25'0 0.0
2017-Sep-18 08:59N 37°49' W 122°25'0 0.0
2017-Sep-18 08:29N 37°49' W 122°25'0 0.0
2017-Sep-18 07:59N 37°49' W 122°25'0 0.0
2017-Sep-18 07:26N 37°49' W 122°25'0 0.0
2017-Sep-18 06:59N 37°49' W 122°25'0 0.0
2017-Sep-18 06:29N 37°49' W 122°25'0 0.0
2017-Sep-18 05:53N 37°49' W 122°25'0 0.0
2017-Sep-18 05:29N 37°49' W 122°25'0 0.0
2017-Sep-18 04:59N 37°49' W 122°25'0 0.0
2017-Sep-18 04:29N 37°49' W 122°25'0 0.0
2017-Sep-18 03:59N 37°49' W 122°25'0 0.0
2017-Sep-18 03:29N 37°49' W 122°25'0 0.0
2017-Sep-18 02:59N 37°49' W 122°25'0 0.0
2017-Sep-18 02:29N 37°49' W 122°25'0 0.0
2017-Sep-18 01:56N 37°49' W 122°25'0 0.0
2017-Sep-18 01:29N 37°49' W 122°25'2 4.2
2017-Sep-18 01:01N 37°49' W 122°27'2 4.0
2017-Sep-18 00:30N 37°49' W 122°25'1 1.1
2017-Sep-18 00:00N 37°49' W 122°24'1 2.8
2017-Sep-17 23:31N 37°49' W 122°25'2 3.6
2017-Sep-17 23:00N 37°49' W 122°28'2 4.6
2017-Sep-17 22:30N 37°49' W 122°25'0 0.9
2017-Sep-17 22:00N 37°49' W 122°24'3 5.2
2017-Sep-17 21:30N 37°49' W 122°28'2 4.9
2017-Sep-17 21:00N 37°49' W 122°25'0 0.0
2017-Sep-17 20:30N 37°49' W 122°25'1 1.0
2017-Sep-17 20:00N 37°49' W 122°24'2 4.9
2017-Sep-17 19:30N 37°49' W 122°28'2 4.7
2017-Sep-17 19:00N 37°49' W 122°25'0 0.9
2017-Sep-17 18:30N 37°49' W 122°24'2 4.6
2017-Sep-17 18:01N 37°49' W 122°27'2 0.1
2017-Sep-17 03:20N 37°49' W 122°25'1 3.0
2017-Sep-17 03:01N 37°48' W 122°24'1 2.0
2017-Sep-17 02:31N 37°49' W 122°24'2 3.5
2017-Sep-17 02:00N 37°49' W 122°27'2 3.1
2017-Sep-17 01:30N 37°49' W 122°25'0 0.0
2017-Sep-17 01:00N 37°49' W 122°25'0 0.0
2017-Sep-17 00:30N 37°49' W 122°25'1 1.2
2017-Sep-17 00:00N 37°49' W 122°24'2 3.1
2017-Sep-16 23:31N 37°49' W 122°25'2 3.6
2017-Sep-16 23:00N 37°49' W 122°28'2 4.7
2017-Sep-16 22:29N 37°49' W 122°25'0 1.0
2017-Sep-16 22:01N 37°49' W 122°24'2 4.5
2017-Sep-16 21:30N 37°49' W 122°27'2 4.3
2017-Sep-16 21:00N 37°49' W 122°25'0 0.0
2017-Sep-16 20:31N 37°49' W 122°25'0 0.5
2017-Sep-16 20:00N 37°49' W 122°24'3 5.7
2017-Sep-16 19:31N 37°49' W 122°28'3 5.4
2017-Sep-16 19:00N 37°49' W 122°25'0 0.5
2017-Sep-16 18:31N 37°49' W 122°24'3 5.1
2017-Sep-16 18:01N 37°49' W 122°28'2 4.7
2017-Sep-16 17:30N 37°49' W 122°25'0 0.0
2017-Sep-16 16:54N 37°49' W 122°25'0 0.0
2017-Sep-16 16:30N 37°49' W 122°25'0 0.0
2017-Sep-16 16:00N 37°49' W 122°25'0 0.0
2017-Sep-16 15:30N 37°49' W 122°25'0 0.0
2017-Sep-16 15:00N 37°49' W 122°25'0 0.0
2017-Sep-16 14:30N 37°49' W 122°25'0 0.0
2017-Sep-16 14:00N 37°49' W 122°25'0 0.0
2017-Sep-16 13:30N 37°49' W 122°25'0 0.0
2017-Sep-16 13:00N 37°49' W 122°25'0 0.0
2017-Sep-16 12:30N 37°49' W 122°25'0 0.0
2017-Sep-16 12:00N 37°49' W 122°25'0 0.0
2017-Sep-16 11:30N 37°49' W 122°25'0 0.0
2017-Sep-16 11:00N 37°49' W 122°25'0 0.0
2017-Sep-16 10:30N 37°49' W 122°25'0 0.0
2017-Sep-16 10:00N 37°49' W 122°25'0 0.0
2017-Sep-16 09:30N 37°49' W 122°25'0 0.0
2017-Sep-16 09:00N 37°49' W 122°25'0 0.0
2017-Sep-16 08:30N 37°49' W 122°25'0 0.0
2017-Sep-16 08:00N 37°49' W 122°25'0 0.0
2017-Sep-16 07:30N 37°49' W 122°25'0 0.0
2017-Sep-16 07:00N 37°49' W 122°25'0 0.0
2017-Sep-16 06:30N 37°49' W 122°25'0 0.0
2017-Sep-16 06:00N 37°49' W 122°25'0 0.0
2017-Sep-16 05:24N 37°49' W 122°25'0 0.0
2017-Sep-16 04:57N 37°49' W 122°25'0 0.0
2017-Sep-16 04:30N 37°49' W 122°25'0 0.0
2017-Sep-16 03:48N 37°49' W 122°25'0 0.0
2017-Sep-16 03:30N 37°49' W 122°25'0 0.0
2017-Sep-16 03:00N 37°49' W 122°25'0 0.0
2017-Sep-16 02:21N 37°49' W 122°25'0 0.0
2017-Sep-16 02:00N 37°49' W 122°25'0 0.0
2017-Sep-16 01:28N 37°49' W 122°25'2 5.5
2017-Sep-16 01:01N 37°49' W 122°28'2 5.0
2017-Sep-16 00:30N 37°49' W 122°25'0 0.8
2017-Sep-16 00:00N 37°49' W 122°24'1 2.3
2017-Sep-15 23:30N 37°49' W 122°25'1 2.1
2017-Sep-15 23:00N 37°49' W 122°27'2 3.2
2017-Sep-15 22:30N 37°49' W 122°25'1 1.9
2017-Sep-15 22:00N 37°49' W 122°25'1 2.8
2017-Sep-15 21:30N 37°49' W 122°27'2 3.2
2017-Sep-15 21:00N 37°49' W 122°25'0 0.0
2017-Sep-15 20:30N 37°49' W 122°25'1 2.2
2017-Sep-15 20:00N 37°50' W 122°25'2 3.3
2017-Sep-15 19:30N 37°49' W 122°27'2 3.6
2017-Sep-15 19:00N 37°49' W 122°25'1 1.4
2017-Sep-15 18:31N 37°49' W 122°25'2 4.6
2017-Sep-15 18:01N 37°49' W 122°27'2 0.1
2017-Sep-15 01:29N 37°49' W 122°25'3 6.0
2017-Sep-15 01:01N 37°49' W 122°28'3 5.6
2017-Sep-15 00:31N 37°49' W 122°25'1 1.8
2017-Sep-15 00:01N 37°48' W 122°24'2 3.1
2017-Sep-14 23:31N 37°49' W 122°25'2 3.1
2017-Sep-14 23:00N 37°49' W 122°27'2 3.5
2017-Sep-14 22:30N 37°49' W 122°25'1 1.9
2017-Sep-14 22:00N 37°49' W 122°25'2 3.5
2017-Sep-14 21:30N 37°49' W 122°27'2 3.8
2017-Sep-14 21:01N 37°49' W 122°25'0 0.0
2017-Sep-14 20:30N 37°49' W 122°25'1 2.0
2017-Sep-14 20:01N 37°49' W 122°25'2 3.3
2017-Sep-14 19:31N 37°49' W 122°27'2 3.9
2017-Sep-14 19:00N 37°49' W 122°25'1 1.8
2017-Sep-14 18:30N 37°49' W 122°25'2 3.6
2017-Sep-14 18:00N 37°49' W 122°27'2 4.1
2017-Sep-14 17:31N 37°49' W 122°25'  

Dump ship's entire track history